sensor_id;sensor_type;location;lat;lon;timestamp;temperature;humidity
17421;DHT22;8828;48.800;9.540;2022-08-19T00:00:03;22.60;99.90
17421;DHT22;8828;48.800;9.540;2022-08-19T00:02:32;22.60;99.90
17421;DHT22;8828;48.800;9.540;2022-08-19T00:05:00;22.60;99.90
17421;DHT22;8828;48.800;9.540;2022-08-19T00:07:28;22.60;99.90
17421;DHT22;8828;48.800;9.540;2022-08-19T00:09:56;22.60;99.90
17421;DHT22;8828;48.800;9.540;2022-08-19T00:12:24;22.60;99.90
17421;DHT22;8828;48.800;9.540;2022-08-19T00:14:53;22.60;99.90
17421;DHT22;8828;48.800;9.540;2022-08-19T00:17:21;22.60;99.90
17421;DHT22;8828;48.800;9.540;2022-08-19T00:19:49;22.70;99.90
17421;DHT22;8828;48.800;9.540;2022-08-19T00:22:17;22.60;99.90
17421;DHT22;8828;48.800;9.540;2022-08-19T00:24:45;22.70;99.90
17421;DHT22;8828;48.800;9.540;2022-08-19T00:27:16;22.70;99.90
17421;DHT22;8828;48.800;9.540;2022-08-19T00:29:53;22.70;99.90
17421;DHT22;8828;48.800;9.540;2022-08-19T00:32:22;22.70;99.90
17421;DHT22;8828;48.800;9.540;2022-08-19T00:34:53;22.70;99.90
17421;DHT22;8828;48.800;9.540;2022-08-19T00:37:21;22.70;99.90
17421;DHT22;8828;48.800;9.540;2022-08-19T00:39:50;22.60;99.90
17421;DHT22;8828;48.800;9.540;2022-08-19T00:42:20;22.70;99.90
17421;DHT22;8828;48.800;9.540;2022-08-19T00:44:48;22.60;99.90
17421;DHT22;8828;48.800;9.540;2022-08-19T00:47:19;22.60;99.90
17421;DHT22;8828;48.800;9.540;2022-08-19T00:49:50;22.60;99.90
17421;DHT22;8828;48.800;9.540;2022-08-19T00:52:21;22.60;99.90
17421;DHT22;8828;48.800;9.540;2022-08-19T00:54:51;22.60;99.90
17421;DHT22;8828;48.800;9.540;2022-08-19T00:57:32;22.60;99.90
17421;DHT22;8828;48.800;9.540;2022-08-19T01:00:05;22.60;99.90
17421;DHT22;8828;48.800;9.540;2022-08-19T01:02:35;22.60;99.90
17421;DHT22;8828;48.800;9.540;2022-08-19T01:05:08;22.60;99.90
17421;DHT22;8828;48.800;9.540;2022-08-19T01:07:38;22.60;99.90
17421;DHT22;8828;48.800;9.540;2022-08-19T01:10:10;22.50;99.90
17421;DHT22;8828;48.800;9.540;2022-08-19T01:12:39;22.60;99.90
17421;DHT22;8828;48.800;9.540;2022-08-19T01:15:10;22.50;99.90
17421;DHT22;8828;48.800;9.540;2022-08-19T01:17:40;22.50;99.90
17421;DHT22;8828;48.800;9.540;2022-08-19T01:20:12;22.40;99.90
17421;DHT22;8828;48.800;9.540;2022-08-19T01:22:46;22.40;99.90
17421;DHT22;8828;48.800;9.540;2022-08-19T01:25:15;22.30;99.90
17421;DHT22;8828;48.800;9.540;2022-08-19T01:27:46;22.30;99.90
17421;DHT22;8828;48.800;9.540;2022-08-19T01:30:22;22.30;99.90
17421;DHT22;8828;48.800;9.540;2022-08-19T01:32:51;22.20;99.90
17421;DHT22;8828;48.800;9.540;2022-08-19T01:35:20;22.20;99.90
17421;DHT22;8828;48.800;9.540;2022-08-19T01:37:53;22.20;99.90
17421;DHT22;8828;48.800;9.540;2022-08-19T01:40:23;22.20;99.90
17421;DHT22;8828;48.800;9.540;2022-08-19T01:42:53;22.20;99.90
17421;DHT22;8828;48.800;9.540;2022-08-19T01:45:24;22.20;99.90
17421;DHT22;8828;48.800;9.540;2022-08-19T01:47:52;22.20;99.90
17421;DHT22;8828;48.800;9.540;2022-08-19T01:50:29;22.20;99.90
17421;DHT22;8828;48.800;9.540;2022-08-19T01:53:00;22.20;99.90
17421;DHT22;8828;48.800;9.540;2022-08-19T01:55:35;22.20;99.90
17421;DHT22;8828;48.800;9.540;2022-08-19T01:58:10;22.20;99.90
17421;DHT22;8828;48.800;9.540;2022-08-19T02:00:39;22.20;99.90
17421;DHT22;8828;48.800;9.540;2022-08-19T02:03:08;22.20;99.90
17421;DHT22;8828;48.800;9.540;2022-08-19T02:05:38;22.20;99.90
17421;DHT22;8828;48.800;9.540;2022-08-19T02:08:08;22.20;99.90
17421;DHT22;8828;48.800;9.540;2022-08-19T02:10:39;22.10;99.90
17421;DHT22;8828;48.800;9.540;2022-08-19T02:13:08;22.10;99.90
17421;DHT22;8828;48.800;9.540;2022-08-19T02:15:36;22.10;99.90
17421;DHT22;8828;48.800;9.540;2022-08-19T02:18:04;22.10;99.90
17421;DHT22;8828;48.800;9.540;2022-08-19T02:20:33;22.10;99.90
17421;DHT22;8828;48.800;9.540;2022-08-19T02:23:02;22.00;99.90
17421;DHT22;8828;48.800;9.540;2022-08-19T02:25:31;22.00;99.90
17421;DHT22;8828;48.800;9.540;2022-08-19T02:27:59;22.00;99.90
17421;DHT22;8828;48.800;9.540;2022-08-19T02:30:27;22.00;99.90
17421;DHT22;8828;48.800;9.540;2022-08-19T02:32:55;22.00;99.90
17421;DHT22;8828;48.800;9.540;2022-08-19T02:35:25;22.00;99.90
17421;DHT22;8828;48.800;9.540;2022-08-19T02:37:53;21.90;99.90
17421;DHT22;8828;48.800;9.540;2022-08-19T02:40:39;21.90;99.90
17421;DHT22;8828;48.800;9.540;2022-08-19T02:43:09;21.90;99.90
17421;DHT22;8828;48.800;9.540;2022-08-19T02:45:38;21.80;99.90
17421;DHT22;8828;48.800;9.540;2022-08-19T02:48:08;21.80;99.90
17421;DHT22;8828;48.800;9.540;2022-08-19T02:50:48;21.80;99.90
17421;DHT22;8828;48.800;9.540;2022-08-19T02:53:19;21.80;99.90
17421;DHT22;8828;48.800;9.540;2022-08-19T02:55:50;21.80;99.90
17421;DHT22;8828;48.800;9.540;2022-08-19T02:58:20;21.80;99.90
17421;DHT22;8828;48.800;9.540;2022-08-19T03:00:52;21.70;99.90
17421;DHT22;8828;48.800;9.540;2022-08-19T03:03:21;21.70;99.90
17421;DHT22;8828;48.800;9.540;2022-08-19T03:05:50;21.70;99.90
17421;DHT22;8828;48.800;9.540;2022-08-19T03:08:22;21.70;99.90
17421;DHT22;8828;48.800;9.540;2022-08-19T03:10:53;21.60;99.90
17421;DHT22;8828;48.800;9.540;2022-08-19T03:13:21;21.60;99.90
17421;DHT22;8828;48.800;9.540;2022-08-19T03:15:49;21.60;99.90
17421;DHT22;8828;48.800;9.540;2022-08-19T03:18:17;21.50;99.90
17421;DHT22;8828;48.800;9.540;2022-08-19T03:20:50;21.50;99.90
17421;DHT22;8828;48.800;9.540;2022-08-19T03:23:21;21.50;99.90
17421;DHT22;8828;48.800;9.540;2022-08-19T03:25:51;21.50;99.90
17421;DHT22;8828;48.800;9.540;2022-08-19T03:28:41;21.50;99.90
17421;DHT22;8828;48.800;9.540;2022-08-19T03:31:25;21.40;99.90
17421;DHT22;8828;48.800;9.540;2022-08-19T03:34:18;21.40;99.90
17421;DHT22;8828;48.800;9.540;2022-08-19T03:36:47;21.40;99.90
17421;DHT22;8828;48.800;9.540;2022-08-19T03:39:15;21.40;99.90
17421;DHT22;8828;48.800;9.540;2022-08-19T03:41:45;21.40;99.90
17421;DHT22;8828;48.800;9.540;2022-08-19T03:44:21;21.40;99.90
17421;DHT22;8828;48.800;9.540;2022-08-19T03:46:52;21.40;99.90
17421;DHT22;8828;48.800;9.540;2022-08-19T03:49:21;21.40;99.90
17421;DHT22;8828;48.800;9.540;2022-08-19T03:51:55;21.40;99.90
17421;DHT22;8828;48.800;9.540;2022-08-19T03:54:25;21.40;99.90
17421;DHT22;8828;48.800;9.540;2022-08-19T03:56:56;21.40;99.90
17421;DHT22;8828;48.800;9.540;2022-08-19T03:59:27;21.40;99.90
17421;DHT22;8828;48.800;9.540;2022-08-19T04:01:57;21.40;99.90
17421;DHT22;8828;48.800;9.540;2022-08-19T04:04:26;21.40;99.90
17421;DHT22;8828;48.800;9.540;2022-08-19T04:06:55;21.40;99.90
17421;DHT22;8828;48.800;9.540;2022-08-19T04:09:23;21.40;99.90
17421;DHT22;8828;48.800;9.540;2022-08-19T04:11:55;21.40;99.90
17421;DHT22;8828;48.800;9.540;2022-08-19T04:14:27;21.40;99.90
17421;DHT22;8828;48.800;9.540;2022-08-19T04:16:57;21.40;99.90
17421;DHT22;8828;48.800;9.540;2022-08-19T04:19:26;21.40;99.90
17421;DHT22;8828;48.800;9.540;2022-08-19T04:21:54;21.40;99.90
17421;DHT22;8828;48.800;9.540;2022-08-19T04:24:23;21.40;99.90
17421;DHT22;8828;48.800;9.540;2022-08-19T04:26:51;21.40;99.90
17421;DHT22;8828;48.800;9.540;2022-08-19T04:29:22;21.40;99.90
17421;DHT22;8828;48.800;9.540;2022-08-19T04:31:54;21.40;99.90
17421;DHT22;8828;48.800;9.540;2022-08-19T04:34:24;21.40;99.90
17421;DHT22;8828;48.800;9.540;2022-08-19T04:36:56;21.50;99.90
17421;DHT22;8828;48.800;9.540;2022-08-19T04:39:26;21.40;99.90
17421;DHT22;8828;48.800;9.540;2022-08-19T04:42:16;21.50;99.90
17421;DHT22;8828;48.800;9.540;2022-08-19T04:45:02;21.50;99.90
17421;DHT22;8828;48.800;9.540;2022-08-19T04:47:32;21.50;99.90
17421;DHT22;8828;48.800;9.540;2022-08-19T04:50:20;21.50;99.90
17421;DHT22;8828;48.800;9.540;2022-08-19T04:52:50;21.50;99.90
17421;DHT22;8828;48.800;9.540;2022-08-19T04:55:19;21.50;99.90
17421;DHT22;8828;48.800;9.540;2022-08-19T04:57:47;21.50;99.90
17421;DHT22;8828;48.800;9.540;2022-08-19T05:00:15;21.50;99.90
17421;DHT22;8828;48.800;9.540;2022-08-19T05:02:44;21.50;99.90
17421;DHT22;8828;48.800;9.540;2022-08-19T05:05:13;21.50;99.90
17421;DHT22;8828;48.800;9.540;2022-08-19T05:07:40;21.40;99.90
17421;DHT22;8828;48.800;9.540;2022-08-19T05:10:09;21.40;99.90
17421;DHT22;8828;48.800;9.540;2022-08-19T05:12:38;21.40;99.90
17421;DHT22;8828;48.800;9.540;2022-08-19T05:15:07;21.40;99.90
17421;DHT22;8828;48.800;9.540;2022-08-19T05:17:35;21.40;99.90
17421;DHT22;8828;48.800;9.540;2022-08-19T05:20:08;21.40;99.90
17421;DHT22;8828;48.800;9.540;2022-08-19T05:23:02;21.40;99.90
17421;DHT22;8828;48.800;9.540;2022-08-19T05:25:39;21.40;99.90
17421;DHT22;8828;48.800;9.540;2022-08-19T05:28:08;21.40;99.90
17421;DHT22;8828;48.800;9.540;2022-08-19T05:30:36;21.40;99.90
17421;DHT22;8828;48.800;9.540;2022-08-19T05:33:13;21.40;99.90
17421;DHT22;8828;48.800;9.540;2022-08-19T05:35:42;21.40;99.90
17421;DHT22;8828;48.800;9.540;2022-08-19T05:38:10;21.40;99.90
17421;DHT22;8828;48.800;9.540;2022-08-19T05:40:39;21.40;99.90
17421;DHT22;8828;48.800;9.540;2022-08-19T05:43:08;21.40;99.90
17421;DHT22;8828;48.800;9.540;2022-08-19T05:45:39;21.40;99.90
17421;DHT22;8828;48.800;9.540;2022-08-19T05:48:08;21.30;99.90
17421;DHT22;8828;48.800;9.540;2022-08-19T05:50:38;21.40;99.90
17421;DHT22;8828;48.800;9.540;2022-08-19T05:53:08;21.40;99.90
17421;DHT22;8828;48.800;9.540;2022-08-19T05:55:36;21.40;99.90
17421;DHT22;8828;48.800;9.540;2022-08-19T05:58:06;21.40;99.90
17421;DHT22;8828;48.800;9.540;2022-08-19T06:00:34;21.40;99.90
17421;DHT22;8828;48.800;9.540;2022-08-19T06:03:02;21.40;99.90
17421;DHT22;8828;48.800;9.540;2022-08-19T06:05:39;21.40;99.90
17421;DHT22;8828;48.800;9.540;2022-08-19T06:08:19;21.50;99.90
17421;DHT22;8828;48.800;9.540;2022-08-19T06:11:15;21.50;99.90
17421;DHT22;8828;48.800;9.540;2022-08-19T06:13:45;21.50;99.90
17421;DHT22;8828;48.800;9.540;2022-08-19T06:16:14;21.60;99.90
17421;DHT22;8828;48.800;9.540;2022-08-19T06:18:46;21.60;99.90
17421;DHT22;8828;48.800;9.540;2022-08-19T06:21:15;21.60;99.90
17421;DHT22;8828;48.800;9.540;2022-08-19T06:23:44;21.60;99.90
17421;DHT22;8828;48.800;9.540;2022-08-19T06:26:15;21.70;99.90
17421;DHT22;8828;48.800;9.540;2022-08-19T06:28:43;21.70;99.90
17421;DHT22;8828;48.800;9.540;2022-08-19T06:31:13;21.70;99.90
17421;DHT22;8828;48.800;9.540;2022-08-19T06:33:43;21.70;99.90
17421;DHT22;8828;48.800;9.540;2022-08-19T06:36:17;21.70;99.90
17421;DHT22;8828;48.800;9.540;2022-08-19T06:38:47;21.70;99.90
17421;DHT22;8828;48.800;9.540;2022-08-19T06:41:15;21.80;99.90
17421;DHT22;8828;48.800;9.540;2022-08-19T06:43:43;21.80;99.90
17421;DHT22;8828;48.800;9.540;2022-08-19T06:46:13;21.80;99.90
17421;DHT22;8828;48.800;9.540;2022-08-19T06:48:41;21.80;99.90
17421;DHT22;8828;48.800;9.540;2022-08-19T06:51:12;21.80;99.90
17421;DHT22;8828;48.800;9.540;2022-08-19T06:53:46;21.80;99.90
17421;DHT22;8828;48.800;9.540;2022-08-19T06:56:21;21.80;99.90
17421;DHT22;8828;48.800;9.540;2022-08-19T06:58:51;21.70;99.90
17421;DHT22;8828;48.800;9.540;2022-08-19T07:01:20;21.70;99.90
17421;DHT22;8828;48.800;9.540;2022-08-19T07:03:48;21.70;99.90
17421;DHT22;8828;48.800;9.540;2022-08-19T07:06:17;21.60;99.90
17421;DHT22;8828;48.800;9.540;2022-08-19T07:09:12;21.60;99.90
17421;DHT22;8828;48.800;9.540;2022-08-19T07:11:45;21.60;99.90
17421;DHT22;8828;48.800;9.540;2022-08-19T07:14:13;21.60;99.90
17421;DHT22;8828;48.800;9.540;2022-08-19T07:16:47;21.60;99.90
17421;DHT22;8828;48.800;9.540;2022-08-19T07:19:15;21.60;99.90
17421;DHT22;8828;48.800;9.540;2022-08-19T07:21:47;21.60;99.90
17421;DHT22;8828;48.800;9.540;2022-08-19T07:24:17;21.50;99.90
17421;DHT22;8828;48.800;9.540;2022-08-19T07:26:46;21.50;99.90
17421;DHT22;8828;48.800;9.540;2022-08-19T07:29:18;21.50;99.90
17421;DHT22;8828;48.800;9.540;2022-08-19T07:31:51;21.50;99.90
17421;DHT22;8828;48.800;9.540;2022-08-19T07:34:23;21.50;99.90
17421;DHT22;8828;48.800;9.540;2022-08-19T07:36:52;21.50;99.90
17421;DHT22;8828;48.800;9.540;2022-08-19T07:39:24;21.50;99.90
17421;DHT22;8828;48.800;9.540;2022-08-19T07:41:53;21.60;99.90
17421;DHT22;8828;48.800;9.540;2022-08-19T07:44:22;21.50;99.90
17421;DHT22;8828;48.800;9.540;2022-08-19T07:46:52;21.50;99.90
17421;DHT22;8828;48.800;9.540;2022-08-19T07:49:23;21.50;99.90
17421;DHT22;8828;48.800;9.540;2022-08-19T07:51:53;21.50;99.90
17421;DHT22;8828;48.800;9.540;2022-08-19T07:54:24;21.50;99.90
17421;DHT22;8828;48.800;9.540;2022-08-19T07:56:54;21.50;99.90
17421;DHT22;8828;48.800;9.540;2022-08-19T07:59:22;21.50;99.90
17421;DHT22;8828;48.800;9.540;2022-08-19T08:01:50;21.50;99.90
17421;DHT22;8828;48.800;9.540;2022-08-19T08:04:19;21.50;99.90
17421;DHT22;8828;48.800;9.540;2022-08-19T08:07:06;21.60;99.90
17421;DHT22;8828;48.800;9.540;2022-08-19T08:09:59;21.60;99.90
17421;DHT22;8828;48.800;9.540;2022-08-19T08:12:32;21.60;99.90
17421;DHT22;8828;48.800;9.540;2022-08-19T08:15:07;21.60;99.90
17421;DHT22;8828;48.800;9.540;2022-08-19T08:17:39;21.60;99.90
17421;DHT22;8828;48.800;9.540;2022-08-19T08:20:18;21.60;99.90
17421;DHT22;8828;48.800;9.540;2022-08-19T08:22:46;21.60;99.90
17421;DHT22;8828;48.800;9.540;2022-08-19T08:25:35;21.60;99.90
17421;DHT22;8828;48.800;9.540;2022-08-19T08:28:04;21.70;99.90
17421;DHT22;8828;48.800;9.540;2022-08-19T08:30:37;21.70;99.90
17421;DHT22;8828;48.800;9.540;2022-08-19T08:33:11;21.70;99.90
17421;DHT22;8828;48.800;9.540;2022-08-19T08:35:40;21.70;99.90
17421;DHT22;8828;48.800;9.540;2022-08-19T08:38:09;21.80;99.90
17421;DHT22;8828;48.800;9.540;2022-08-19T08:40:43;21.70;99.90
17421;DHT22;8828;48.800;9.540;2022-08-19T08:43:29;21.80;99.90
17421;DHT22;8828;48.800;9.540;2022-08-19T08:46:03;21.80;99.90
17421;DHT22;8828;48.800;9.540;2022-08-19T08:48:37;21.80;99.90
17421;DHT22;8828;48.800;9.540;2022-08-19T08:51:10;21.80;99.90
17421;DHT22;8828;48.800;9.540;2022-08-19T08:53:39;21.80;99.90
17421;DHT22;8828;48.800;9.540;2022-08-19T08:56:11;21.80;99.90
17421;DHT22;8828;48.800;9.540;2022-08-19T08:58:50;21.80;99.90
17421;DHT22;8828;48.800;9.540;2022-08-19T09:01:20;21.80;99.90
17421;DHT22;8828;48.800;9.540;2022-08-19T09:03:49;21.80;99.90
17421;DHT22;8828;48.800;9.540;2022-08-19T09:06:37;21.80;99.90
17421;DHT22;8828;48.800;9.540;2022-08-19T09:09:14;21.80;99.90
17421;DHT22;8828;48.800;9.540;2022-08-19T09:12:06;21.80;99.90
17421;DHT22;8828;48.800;9.540;2022-08-19T09:14:43;21.80;99.90
17421;DHT22;8828;48.800;9.540;2022-08-19T09:17:17;21.80;99.90
17421;DHT22;8828;48.800;9.540;2022-08-19T09:19:51;21.80;99.90
17421;DHT22;8828;48.800;9.540;2022-08-19T09:22:20;21.80;99.90
17421;DHT22;8828;48.800;9.540;2022-08-19T09:24:51;21.80;99.90
17421;DHT22;8828;48.800;9.540;2022-08-19T09:27:22;21.80;99.90
17421;DHT22;8828;48.800;9.540;2022-08-19T09:30:11;21.70;99.90
17421;DHT22;8828;48.800;9.540;2022-08-19T09:32:39;21.80;99.90
17421;DHT22;8828;48.800;9.540;2022-08-19T09:35:09;21.80;99.90
17421;DHT22;8828;48.800;9.540;2022-08-19T09:37:37;21.80;99.90
17421;DHT22;8828;48.800;9.540;2022-08-19T09:40:07;21.80;99.90
17421;DHT22;8828;48.800;9.540;2022-08-19T09:42:39;21.70;99.90
17421;DHT22;8828;48.800;9.540;2022-08-19T09:45:20;21.70;99.90
17421;DHT22;8828;48.800;9.540;2022-08-19T09:47:50;21.80;99.90
17421;DHT22;8828;48.800;9.540;2022-08-19T09:50:21;21.80;99.90
17421;DHT22;8828;48.800;9.540;2022-08-19T09:52:49;21.70;99.90
17421;DHT22;8828;48.800;9.540;2022-08-19T09:55:23;21.70;99.90
17421;DHT22;8828;48.800;9.540;2022-08-19T09:57:59;21.80;99.90
17421;DHT22;8828;48.800;9.540;2022-08-19T10:00:28;21.70;99.90
17421;DHT22;8828;48.800;9.540;2022-08-19T10:02:56;21.80;99.90
17421;DHT22;8828;48.800;9.540;2022-08-19T10:05:24;21.80;99.90
17421;DHT22;8828;48.800;9.540;2022-08-19T10:08:10;21.80;99.90
17421;DHT22;8828;48.800;9.540;2022-08-19T10:10:40;21.80;99.90
17421;DHT22;8828;48.800;9.540;2022-08-19T10:13:15;21.80;99.90
17421;DHT22;8828;48.800;9.540;2022-08-19T10:15:43;21.90;99.90
17421;DHT22;8828;48.800;9.540;2022-08-19T10:18:15;21.90;99.90
17421;DHT22;8828;48.800;9.540;2022-08-19T10:20:45;21.90;99.90
17421;DHT22;8828;48.800;9.540;2022-08-19T10:23:18;22.00;99.90
17421;DHT22;8828;48.800;9.540;2022-08-19T10:25:47;22.00;99.90
17421;DHT22;8828;48.800;9.540;2022-08-19T10:28:17;22.00;99.90
17421;DHT22;8828;48.800;9.540;2022-08-19T10:30:46;22.10;99.90
17421;DHT22;8828;48.800;9.540;2022-08-19T10:33:14;22.10;99.90
17421;DHT22;8828;48.800;9.540;2022-08-19T10:36:04;22.10;99.90
17421;DHT22;8828;48.800;9.540;2022-08-19T10:38:33;22.10;99.90
17421;DHT22;8828;48.800;9.540;2022-08-19T10:41:10;22.20;99.90
17421;DHT22;8828;48.800;9.540;2022-08-19T10:43:40;22.10;99.90
17421;DHT22;8828;48.800;9.540;2022-08-19T10:46:11;22.10;99.90
17421;DHT22;8828;48.800;9.540;2022-08-19T10:48:43;22.10;99.90
17421;DHT22;8828;48.800;9.540;2022-08-19T10:51:11;22.10;99.90
17421;DHT22;8828;48.800;9.540;2022-08-19T10:53:58;22.10;99.90
17421;DHT22;8828;48.800;9.540;2022-08-19T10:56:27;22.10;99.90
17421;DHT22;8828;48.800;9.540;2022-08-19T10:59:15;22.10;99.90
17421;DHT22;8828;48.800;9.540;2022-08-19T11:01:45;22.10;99.90
17421;DHT22;8828;48.800;9.540;2022-08-19T11:04:18;22.10;99.90
17421;DHT22;8828;48.800;9.540;2022-08-19T11:06:47;22.10;99.90
17421;DHT22;8828;48.800;9.540;2022-08-19T11:09:19;22.10;99.90
17421;DHT22;8828;48.800;9.540;2022-08-19T11:11:47;22.10;99.90
17421;DHT22;8828;48.800;9.540;2022-08-19T11:14:17;22.10;99.90
17421;DHT22;8828;48.800;9.540;2022-08-19T11:16:47;22.00;99.90
17421;DHT22;8828;48.800;9.540;2022-08-19T11:19:16;22.00;99.90
17421;DHT22;8828;48.800;9.540;2022-08-19T11:21:47;22.00;99.90
17421;DHT22;8828;48.800;9.540;2022-08-19T11:24:17;21.90;99.90
17421;DHT22;8828;48.800;9.540;2022-08-19T11:26:47;21.90;99.90
17421;DHT22;8828;48.800;9.540;2022-08-19T11:29:19;21.90;99.90
17421;DHT22;8828;48.800;9.540;2022-08-19T11:31:49;21.90;99.90
17421;DHT22;8828;48.800;9.540;2022-08-19T11:34:19;21.80;99.90
17421;DHT22;8828;48.800;9.540;2022-08-19T11:36:49;21.80;99.90
17421;DHT22;8828;48.800;9.540;2022-08-19T11:39:19;21.80;99.90
17421;DHT22;8828;48.800;9.540;2022-08-19T11:41:48;21.80;99.90
17421;DHT22;8828;48.800;9.540;2022-08-19T11:44:17;21.70;99.90
17421;DHT22;8828;48.800;9.540;2022-08-19T11:46:46;21.80;99.90
17421;DHT22;8828;48.800;9.540;2022-08-19T11:49:15;21.80;99.90
17421;DHT22;8828;48.800;9.540;2022-08-19T11:51:45;21.80;99.90
17421;DHT22;8828;48.800;9.540;2022-08-19T11:54:14;21.80;99.90
17421;DHT22;8828;48.800;9.540;2022-08-19T11:56:43;21.80;99.90
17421;DHT22;8828;48.800;9.540;2022-08-19T11:59:13;21.80;99.90
17421;DHT22;8828;48.800;9.540;2022-08-19T12:01:42;21.80;99.90
17421;DHT22;8828;48.800;9.540;2022-08-19T12:04:11;21.80;99.90
17421;DHT22;8828;48.800;9.540;2022-08-19T12:06:40;21.80;99.90
17421;DHT22;8828;48.800;9.540;2022-08-19T12:09:09;21.80;99.90
17421;DHT22;8828;48.800;9.540;2022-08-19T12:11:39;21.80;99.90
17421;DHT22;8828;48.800;9.540;2022-08-19T12:14:10;21.80;99.90
17421;DHT22;8828;48.800;9.540;2022-08-19T12:16:44;21.80;99.90
17421;DHT22;8828;48.800;9.540;2022-08-19T12:19:18;21.80;99.90
17421;DHT22;8828;48.800;9.540;2022-08-19T12:21:49;21.90;99.90
17421;DHT22;8828;48.800;9.540;2022-08-19T12:24:17;21.90;99.90
17421;DHT22;8828;48.800;9.540;2022-08-19T12:26:49;21.90;99.90
17421;DHT22;8828;48.800;9.540;2022-08-19T12:29:19;21.80;99.90
17421;DHT22;8828;48.800;9.540;2022-08-19T12:31:51;21.80;99.90
17421;DHT22;8828;48.800;9.540;2022-08-19T12:34:19;21.80;99.90
17421;DHT22;8828;48.800;9.540;2022-08-19T12:36:47;21.70;99.90
17421;DHT22;8828;48.800;9.540;2022-08-19T12:39:16;21.80;99.90
17421;DHT22;8828;48.800;9.540;2022-08-19T12:41:44;21.70;99.90
17421;DHT22;8828;48.800;9.540;2022-08-19T12:44:21;21.70;99.90
17421;DHT22;8828;48.800;9.540;2022-08-19T12:46:56;21.70;99.90
17421;DHT22;8828;48.800;9.540;2022-08-19T12:49:24;21.60;99.90
17421;DHT22;8828;48.800;9.540;2022-08-19T12:52:12;21.60;99.90
17421;DHT22;8828;48.800;9.540;2022-08-19T12:54:48;21.60;99.90
17421;DHT22;8828;48.800;9.540;2022-08-19T12:57:21;21.60;99.90
17421;DHT22;8828;48.800;9.540;2022-08-19T12:59:59;21.60;99.90
17421;DHT22;8828;48.800;9.540;2022-08-19T13:02:32;21.60;99.90
17421;DHT22;8828;48.800;9.540;2022-08-19T13:05:06;21.60;99.90
17421;DHT22;8828;48.800;9.540;2022-08-19T13:07:35;21.60;99.90
17421;DHT22;8828;48.800;9.540;2022-08-19T13:10:05;21.60;99.90
17421;DHT22;8828;48.800;9.540;2022-08-19T13:12:34;21.60;99.90
17421;DHT22;8828;48.800;9.540;2022-08-19T13:15:02;21.60;99.90
17421;DHT22;8828;48.800;9.540;2022-08-19T13:17:39;21.60;99.90
17421;DHT22;8828;48.800;9.540;2022-08-19T13:20:09;21.60;99.90
17421;DHT22;8828;48.800;9.540;2022-08-19T13:22:38;21.50;99.90
17421;DHT22;8828;48.800;9.540;2022-08-19T13:25:07;21.60;99.90
17421;DHT22;8828;48.800;9.540;2022-08-19T13:27:36;21.50;99.90
17421;DHT22;8828;48.800;9.540;2022-08-19T13:30:06;21.50;99.90
17421;DHT22;8828;48.800;9.540;2022-08-19T13:32:53;21.50;99.90
17421;DHT22;8828;48.800;9.540;2022-08-19T13:35:44;21.50;99.90
17421;DHT22;8828;48.800;9.540;2022-08-19T13:38:14;21.50;99.90
17421;DHT22;8828;48.800;9.540;2022-08-19T13:40:44;21.50;99.90
17421;DHT22;8828;48.800;9.540;2022-08-19T13:43:13;21.50;99.90
17421;DHT22;8828;48.800;9.540;2022-08-19T13:45:50;21.40;99.90
17421;DHT22;8828;48.800;9.540;2022-08-19T13:48:21;21.50;99.90
17421;DHT22;8828;48.800;9.540;2022-08-19T13:50:50;21.50;99.90
17421;DHT22;8828;48.800;9.540;2022-08-19T13:53:18;21.50;99.90
17421;DHT22;8828;48.800;9.540;2022-08-19T13:55:46;21.50;99.90
17421;DHT22;8828;48.800;9.540;2022-08-19T13:58:15;21.50;99.90
17421;DHT22;8828;48.800;9.540;2022-08-19T14:00:45;21.50;99.90
17421;DHT22;8828;48.800;9.540;2022-08-19T14:03:13;21.50;99.90
17421;DHT22;8828;48.800;9.540;2022-08-19T14:05:43;21.50;99.90
17421;DHT22;8828;48.800;9.540;2022-08-19T14:08:12;21.50;99.90
17421;DHT22;8828;48.800;9.540;2022-08-19T14:10:40;21.50;99.90
17421;DHT22;8828;48.800;9.540;2022-08-19T14:13:14;21.50;99.90
17421;DHT22;8828;48.800;9.540;2022-08-19T14:15:42;21.50;99.90
17421;DHT22;8828;48.800;9.540;2022-08-19T14:18:12;21.50;99.90
17421;DHT22;8828;48.800;9.540;2022-08-19T14:20:40;21.50;99.90
17421;DHT22;8828;48.800;9.540;2022-08-19T14:23:10;21.50;99.90
17421;DHT22;8828;48.800;9.540;2022-08-19T14:25:39;21.50;99.90
17421;DHT22;8828;48.800;9.540;2022-08-19T14:28:07;21.50;99.90
17421;DHT22;8828;48.800;9.540;2022-08-19T14:30:36;21.60;99.90
17421;DHT22;8828;48.800;9.540;2022-08-19T14:33:05;21.60;99.90
17421;DHT22;8828;48.800;9.540;2022-08-19T14:35:35;21.60;99.90
17421;DHT22;8828;48.800;9.540;2022-08-19T14:38:03;21.70;99.90
17421;DHT22;8828;48.800;9.540;2022-08-19T14:40:33;21.70;99.90
17421;DHT22;8828;48.800;9.540;2022-08-19T14:43:03;21.70;99.90
17421;DHT22;8828;48.800;9.540;2022-08-19T14:45:37;21.70;99.90
17421;DHT22;8828;48.800;9.540;2022-08-19T14:48:07;21.80;99.90
17421;DHT22;8828;48.800;9.540;2022-08-19T14:50:45;21.80;99.90
17421;DHT22;8828;48.800;9.540;2022-08-19T14:53:13;21.80;99.90
17421;DHT22;8828;48.800;9.540;2022-08-19T14:55:44;21.90;99.90
17421;DHT22;8828;48.800;9.540;2022-08-19T14:58:13;21.80;99.90
17421;DHT22;8828;48.800;9.540;2022-08-19T15:00:57;21.80;99.90
17421;DHT22;8828;48.800;9.540;2022-08-19T15:03:25;21.80;99.90
17421;DHT22;8828;48.800;9.540;2022-08-19T15:05:53;21.80;99.90
17421;DHT22;8828;48.800;9.540;2022-08-19T15:08:26;21.80;99.90
17421;DHT22;8828;48.800;9.540;2022-08-19T15:10:57;21.80;99.90
17421;DHT22;8828;48.800;9.540;2022-08-19T15:13:26;21.70;99.90
17421;DHT22;8828;48.800;9.540;2022-08-19T15:15:56;21.70;99.90
17421;DHT22;8828;48.800;9.540;2022-08-19T15:18:24;21.60;99.90
17421;DHT22;8828;48.800;9.540;2022-08-19T15:20:53;21.60;99.90
17421;DHT22;8828;48.800;9.540;2022-08-19T15:23:21;21.60;99.90
17421;DHT22;8828;48.800;9.540;2022-08-19T15:25:50;21.70;99.90
17421;DHT22;8828;48.800;9.540;2022-08-19T15:28:24;21.60;99.90
17421;DHT22;8828;48.800;9.540;2022-08-19T15:30:53;21.60;99.90
17421;DHT22;8828;48.800;9.540;2022-08-19T15:33:21;21.70;99.90
17421;DHT22;8828;48.800;9.540;2022-08-19T15:35:49;21.60;99.90
17421;DHT22;8828;48.800;9.540;2022-08-19T15:38:18;21.60;99.90
17421;DHT22;8828;48.800;9.540;2022-08-19T15:40:49;21.60;99.90
17421;DHT22;8828;48.800;9.540;2022-08-19T15:43:18;21.60;99.90
17421;DHT22;8828;48.800;9.540;2022-08-19T15:45:49;21.60;99.90
17421;DHT22;8828;48.800;9.540;2022-08-19T15:48:17;21.60;99.90
17421;DHT22;8828;48.800;9.540;2022-08-19T15:50:45;21.60;99.90
17421;DHT22;8828;48.800;9.540;2022-08-19T15:53:13;21.60;99.90
17421;DHT22;8828;48.800;9.540;2022-08-19T15:55:44;21.50;99.90
17421;DHT22;8828;48.800;9.540;2022-08-19T15:58:14;21.50;99.90
17421;DHT22;8828;48.800;9.540;2022-08-19T16:01:04;21.50;99.90
17421;DHT22;8828;48.800;9.540;2022-08-19T16:03:55;21.40;99.90
17421;DHT22;8828;48.800;9.540;2022-08-19T16:06:43;21.40;99.90
17421;DHT22;8828;48.800;9.540;2022-08-19T16:09:12;21.40;99.90
17421;DHT22;8828;48.800;9.540;2022-08-19T16:11:41;21.40;99.90